Time;durP1;ratioP1;P1;durP2;ratioP2;P2;SDS_P1;SDS_P2;PMS_P1;PMS_P2;Temp;Humidity;BMP_temperature;BMP_pressure;BME280_temperature;BME280_humidity;BME280_pressure;Samples;Min_cycle;Max_cycle;Signal;HPM_P1;HPM_P2
2022/09/07 00:00:00;;;;;;;;;;;461.00;2380.80;;;;;;5070849;28;19908;-54
2022/09/07 00:02:25;;;;;;;;;;;461.00;2380.80;;;;;;5070916;28;20217;-54
2022/09/07 00:04:51;;;;;;;;;;;461.00;2380.80;;;;;;5070718;28;19908;-55
2022/09/07 00:07:16;;;;;;;;;;;461.00;2380.80;;;;;;5070544;28;20384;-54
2022/09/07 00:09:42;;;;;;;;;;;461.00;2380.80;;;;;;5070665;28;19919;-54
2022/09/07 00:12:08;;;;;;;;;;;461.00;2380.80;;;;;;5069578;28;19921;-62
2022/09/07 00:14:33;;;;;;;;;;;460.90;2380.80;;;;;;5070807;28;19995;-62
2022/09/07 00:16:59;;;;;;;;;;;460.90;2380.80;;;;;;5070422;28;19944;-60
2022/09/07 00:19:25;;;;;;;;;;;460.80;2380.80;;;;;;5070484;28;20335;-60
2022/09/07 00:21:50;;;;;;;;;;;460.80;2380.80;;;;;;5070219;28;19927;-61
2022/09/07 00:24:16;;;;;;;;;;;460.80;2380.80;;;;;;5070352;28;19971;-62
2022/09/07 00:26:41;;;;;;;;;;;460.80;2380.80;;;;;;5070315;28;20365;-60
2022/09/07 00:29:07;;;;;;;;;;;460.80;2380.80;;;;;;5065100;28;19909;-63
2022/09/07 00:31:33;;;;;;;;;;;460.80;2380.80;;;;;;5059456;28;19921;-60
2022/09/07 00:33:59;;;;;;;;;;;460.80;2380.80;;;;;;5057828;28;20269;-61
2022/09/07 00:36:24;;;;;;;;;;;460.80;2380.80;;;;;;5059722;28;20350;-61
2022/09/07 00:38:50;;;;;;;;;;;460.90;2380.80;;;;;;5058969;28;19923;-61
2022/09/07 00:41:16;;;;;;;;;;;460.80;2380.80;;;;;;5058267;28;19912;-61
2022/09/07 00:43:43;;;;;;;;;;;460.80;2380.80;;;;;;5060036;28;19913;-61
2022/09/07 00:46:35;;;;;;;;;;;460.80;2380.80;;;;;;5058596;28;19913;-61
2022/09/07 00:49:01;;;;;;;;;;;460.80;2380.80;;;;;;5053129;28;20318;-60
2022/09/07 00:51:32;;;;;;;;;;;460.80;2380.80;;;;;;5049998;28;19932;-61
2022/09/07 00:54:04;;;;;;;;;;;460.80;2380.80;;;;;;5050145;28;19960;-60
2022/09/07 00:56:31;;;;;;;;;;;436.10;2355.20;;;;;;5050021;28;19963;-61
2022/09/07 00:58:58;;;;;;;;;;;436.10;2355.20;;;;;;5050096;28;20317;-62
2022/09/07 01:01:23;;;;;;;;;;;436.10;2355.20;;;;;;5050450;28;20347;-60
2022/09/07 01:03:50;;;;;;;;;;;435.90;2355.20;;;;;;5050155;28;19955;-61
2022/09/07 01:06:21;;;;;;;;;;;435.90;2355.20;;;;;;5050242;28;19912;-62
2022/09/07 01:08:48;;;;;;;;;;;435.90;2355.20;;;;;;5049891;28;20359;-61
2022/09/07 01:11:14;;;;;;;;;;;435.80;2355.20;;;;;;5050017;28;19917;-62
2022/09/07 01:13:40;;;;;;;;;;;435.90;2355.20;;;;;;5049907;28;19909;-61
2022/09/07 01:16:17;;;;;;;;;;;435.90;2355.20;;;;;;5032181;28;20321;-62
2022/09/07 01:18:48;;;;;;;;;;;435.90;2355.20;;;;;;5050112;28;20003;-62
2022/09/07 01:21:14;;;;;;;;;;;435.80;2355.20;;;;;;5049933;28;19988;-61
2022/09/07 01:23:56;;;;;;;;;;;435.80;2355.20;;;;;;5053339;28;19924;-61
2022/09/07 01:26:42;;;;;;;;;;;435.80;2355.20;;;;;;5053688;28;20371;-62
2022/09/07 01:29:10;;;;;;;;;;;435.90;2355.20;;;;;;5053788;28;19947;-61
2022/09/07 01:31:36;;;;;;;;;;;435.70;2355.20;;;;;;5053816;28;19979;-61
2022/09/07 01:34:07;;;;;;;;;;;435.80;2355.20;;;;;;5053794;28;19945;-60
2022/09/07 01:36:56;;;;;;;;;;;435.80;2355.20;;;;;;5053652;28;19909;-61
2022/09/07 01:39:28;;;;;;;;;;;435.60;2355.20;;;;;;5053598;28;19909;-61
2022/09/07 01:41:57;;;;;;;;;;;435.60;2355.20;;;;;;5053484;28;19916;-60
2022/09/07 01:44:28;;;;;;;;;;;435.40;2355.20;;;;;;5053507;28;19908;-61
2022/09/07 01:47:03;;;;;;;;;;;435.40;2355.20;;;;;;5053531;28;20303;-60
2022/09/07 01:49:37;;;;;;;;;;;435.60;2355.20;;;;;;5053259;28;19913;-61
2022/09/07 01:52:13;;;;;;;;;;;435.60;2355.20;;;;;;5053279;28;19921;-61
2022/09/07 01:54:46;;;;;;;;;;;435.60;2355.20;;;;;;5053250;28;19913;-61
2022/09/07 01:57:19;;;;;;;;;;;435.60;2355.20;;;;;;5053274;28;19913;-61
2022/09/07 01:59:51;;;;;;;;;;;435.60;2355.20;;;;;;5053127;28;20408;-60
2022/09/07 02:02:19;;;;;;;;;;;435.60;2355.20;;;;;;5053281;28;20434;-61
2022/09/07 02:04:49;;;;;;;;;;;435.40;2355.20;;;;;;5053271;28;20021;-63
2022/09/07 02:07:18;;;;;;;;;;;435.40;2355.20;;;;;;5053063;28;19916;-62
2022/09/07 02:09:56;;;;;;;;;;;435.50;2355.20;;;;;;5053150;28;19916;-60
2022/09/07 02:12:28;;;;;;;;;;;435.60;2355.20;;;;;;5052830;28;19917;-60
2022/09/07 02:15:09;;;;;;;;;;;435.30;2355.20;;;;;;5053125;28;19944;-60
2022/09/07 02:17:38;;;;;;;;;;;435.20;2355.20;;;;;;5052805;28;20028;-62
2022/09/07 02:20:08;;;;;;;;;;;435.20;2355.20;;;;;;5052878;28;19909;-61
2022/09/07 02:22:36;;;;;;;;;;;435.20;2355.20;;;;;;5052537;28;20359;-60
2022/09/07 02:25:03;;;;;;;;;;;435.20;2355.20;;;;;;5052822;28;19920;-60
2022/09/07 02:27:55;;;;;;;;;;;435.20;2355.20;;;;;;5052315;28;19964;-61
2022/09/07 02:30:20;;;;;;;;;;;435.30;2355.20;;;;;;5047561;28;19909;-61
2022/09/07 02:32:46;;;;;;;;;;;435.40;2355.20;;;;;;5052617;28;20394;-61
2022/09/07 02:35:13;;;;;;;;;;;435.30;2355.20;;;;;;5051761;28;20407;-61
2022/09/07 02:37:40;;;;;;;;;;;435.30;2355.20;;;;;;5052113;28;19908;-61
2022/09/07 02:40:07;;;;;;;;;;;435.30;2355.20;;;;;;5052442;28;19908;-61
2022/09/07 02:42:33;;;;;;;;;;;435.30;2355.20;;;;;;5052579;28;20051;-60
2022/09/07 02:45:01;;;;;;;;;;;410.50;2355.20;;;;;;5052270;28;19963;-61
2022/09/07 02:47:56;;;;;;;;;;;410.50;2355.20;;;;;;5052353;28;19913;-61
2022/09/07 02:50:21;;;;;;;;;;;435.20;2355.20;;;;;;4952099;29;20269;-61
2022/09/07 02:52:53;;;;;;;;;;;435.30;2355.20;;;;;;4951888;29;19929;-61
2022/09/07 02:55:18;;;;;;;;;;;410.50;2355.20;;;;;;4951994;29;19914;-60
2022/09/07 02:57:59;;;;;;;;;;;410.50;2355.20;;;;;;4951989;29;19970;-62
2022/09/07 03:00:25;;;;;;;;;;;410.50;2355.20;;;;;;4952068;29;19910;-61
2022/09/07 03:03:02;;;;;;;;;;;410.50;2355.20;;;;;;4951915;29;19917;-61
2022/09/07 03:05:48;;;;;;;;;;;410.50;2355.20;;;;;;4951920;29;19966;-60
2022/09/07 03:08:20;;;;;;;;;;;410.50;2355.20;;;;;;4951804;29;19910;-61
2022/09/07 03:10:46;;;;;;;;;;;410.50;2355.20;;;;;;4951747;29;19918;-62
2022/09/07 03:13:21;;;;;;;;;;;410.40;2355.20;;;;;;4951801;29;19911;-61
2022/09/07 03:15:47;;;;;;;;;;;410.50;2355.20;;;;;;4951542;29;19917;-60
2022/09/07 03:18:12;;;;;;;;;;;410.50;2355.20;;;;;;4951690;29;20325;-60
2022/09/07 03:20:38;;;;;;;;;;;410.50;2355.20;;;;;;4951225;29;19910;-60
2022/09/07 03:23:03;;;;;;;;;;;410.50;2355.20;;;;;;4951463;29;19969;-60
2022/09/07 03:25:29;;;;;;;;;;;410.50;2355.20;;;;;;4951420;29;19910;-61
2022/09/07 03:27:55;;;;;;;;;;;435.20;2355.20;;;;;;5049787;28;19908;-62
2022/09/07 03:30:20;;;;;;;;;;;410.50;2355.20;;;;;;5051254;28;19909;-63
2022/09/07 03:32:46;;;;;;;;;;;410.50;2355.20;;;;;;5051336;28;19979;-62
2022/09/07 03:35:12;;;;;;;;;;;410.50;2355.20;;;;;;5051603;28;20000;-60
2022/09/07 03:37:37;;;;;;;;;;;410.50;2355.20;;;;;;5051238;28;19931;-61
2022/09/07 03:40:04;;;;;;;;;;;410.40;2355.20;;;;;;5051275;28;20425;-61
2022/09/07 03:42:30;;;;;;;;;;;410.40;2355.20;;;;;;5051079;28;20011;-61
2022/09/07 03:44:56;;;;;;;;;;;410.40;2355.20;;;;;;5051013;28;19952;-61
2022/09/07 03:47:21;;;;;;;;;;;410.50;2355.20;;;;;;5051325;28;19909;-60
2022/09/07 03:49:47;;;;;;;;;;;435.30;2355.20;;;;;;5050904;28;19951;-60
2022/09/07 03:52:13;;;;;;;;;;;410.50;2355.20;;;;;;5050965;28;20019;-62
2022/09/07 03:54:39;;;;;;;;;;;410.50;2355.20;;;;;;5050799;28;19955;-61
2022/09/07 03:57:04;;;;;;;;;;;410.50;2355.20;;;;;;5050998;28;19909;-60
2022/09/07 03:59:30;;;;;;;;;;;410.50;2355.20;;;;;;5050716;28;19915;-60
2022/09/07 04:01:55;;;;;;;;;;;410.50;2355.20;;;;;;5050952;28;19916;-61
2022/09/07 04:04:21;;;;;;;;;;;410.50;2355.20;;;;;;5050902;28;19915;-60
2022/09/07 04:06:47;;;;;;;;;;;410.50;2355.20;;;;;;5050795;28;19999;-60
2022/09/07 04:09:13;;;;;;;;;;;435.20;2355.20;;;;;;5050884;28;19959;-60
2022/09/07 04:11:41;;;;;;;;;;;410.50;2355.20;;;;;;5050579;28;19916;-60
2022/09/07 04:14:07;;;;;;;;;;;435.20;2355.20;;;;;;5050572;28;19948;-61
2022/09/07 04:16:33;;;;;;;;;;;435.20;2355.20;;;;;;5050853;28;20391;-60
2022/09/07 04:18:59;;;;;;;;;;;435.30;2355.20;;;;;;5050682;28;20012;-60
2022/09/07 04:21:25;;;;;;;;;;;435.20;2355.20;;;;;;5050322;28;20313;-61
2022/09/07 04:23:51;;;;;;;;;;;435.30;2355.20;;;;;;5050493;28;19940;-62
2022/09/07 04:26:21;;;;;;;;;;;435.30;2355.20;;;;;;5050424;28;19909;-61
2022/09/07 04:28:47;;;;;;;;;;;435.30;2355.20;;;;;;5050274;28;20016;-61
2022/09/07 04:31:17;;;;;;;;;;;435.40;2355.20;;;;;;5050279;28;20294;-60
2022/09/07 04:33:43;;;;;;;;;;;435.40;2355.20;;;;;;5050514;28;19917;-61
2022/09/07 04:36:09;;;;;;;;;;;435.50;2355.20;;;;;;5050357;28;20404;-61
2022/09/07 04:38:36;;;;;;;;;;;435.60;2355.20;;;;;;5050502;28;19967;-60
2022/09/07 04:41:05;;;;;;;;;;;435.70;2355.20;;;;;;5050430;28;19909;-60
2022/09/07 04:43:31;;;;;;;;;;;435.80;2355.20;;;;;;5050402;28;20055;-63
2022/09/07 04:45:57;;;;;;;;;;;435.80;2355.20;;;;;;5050117;28;19983;-60
2022/09/07 04:48:22;;;;;;;;;;;435.90;2355.20;;;;;;5050569;28;19908;-60
2022/09/07 04:50:48;;;;;;;;;;;435.90;2355.20;;;;;;5050191;28;19916;-62
2022/09/07 04:53:13;;;;;;;;;;;436.00;2355.20;;;;;;5050544;28;19917;-60
2022/09/07 04:55:39;;;;;;;;;;;436.10;2355.20;;;;;;5050174;28;20003;-64
2022/09/07 04:58:05;;;;;;;;;;;436.10;2355.20;;;;;;5053173;28;19909;-63
2022/09/07 05:00:30;;;;;;;;;;;460.80;2380.80;;;;;;5054106;28;19978;-61
2022/09/07 05:02:56;;;;;;;;;;;461.50;2380.80;;;;;;5054451;28;20008;-61
2022/09/07 05:05:22;;;;;;;;;;;487.10;2380.80;;;;;;5054449;28;19931;-62
2022/09/07 05:07:47;;;;;;;;;;;512.60;2380.80;;;;;;5054165;28;19909;-62
2022/09/07 05:10:13;;;;;;;;;;;563.70;2432.00;;;;;;5053960;28;19909;-61
2022/09/07 05:12:38;;;;;;;;;;;614.80;2432.00;;;;;;5053782;28;20378;-60
2022/09/07 05:15:04;;;;;;;;;;;640.20;2278.40;;;;;;5054010;28;19916;-62
2022/09/07 05:17:30;;;;;;;;;;;640.50;2176.00;;;;;;5053749;28;19908;-62
2022/09/07 05:19:56;;;;;;;;;;;666.00;2073.60;;;;;;5053903;28;19928;-62
2022/09/07 05:22:22;;;;;;;;;;;666.20;2048.00;;;;;;5053706;28;20003;-61
2022/09/07 05:24:47;;;;;;;;;;;640.40;2124.80;;;;;;5053907;28;19951;-61
2022/09/07 05:27:13;;;;;;;;;;;615.20;2176.00;;;;;;5053763;28;19916;-61
2022/09/07 05:29:38;;;;;;;;;;;589.70;2329.60;;;;;;5053533;28;19909;-61
2022/09/07 05:32:04;;;;;;;;;;;589.70;2329.60;;;;;;5053651;28;19917;-60
2022/09/07 05:34:29;;;;;;;;;;;614.40;2329.60;;;;;;5053643;28;20278;-61
2022/09/07 05:36:55;;;;;;;;;;;589.50;2380.80;;;;;;5053641;28;20477;-61
2022/09/07 05:39:21;;;;;;;;;;;614.80;2329.60;;;;;;5053512;28;19975;-60
2022/09/07 05:41:46;;;;;;;;;;;615.30;2227.20;;;;;;5053268;28;19909;-61
2022/09/07 05:44:13;;;;;;;;;;;614.90;2252.80;;;;;;5053467;28;20290;-60
2022/09/07 05:46:39;;;;;;;;;;;614.60;2278.40;;;;;;5053198;28;19909;-61
2022/09/07 05:49:06;;;;;;;;;;;589.30;2432.00;;;;;;5053525;28;19909;-60
2022/09/07 05:51:32;;;;;;;;;;;588.80;2432.00;;;;;;5053092;28;20374;-60
2022/09/07 05:53:58;;;;;;;;;;;589.30;2432.00;;;;;;5053190;28;19913;-61
2022/09/07 05:56:24;;;;;;;;;;;589.00;2432.00;;;;;;5053376;28;20000;-61
2022/09/07 05:58:50;;;;;;;;;;;588.80;2432.00;;;;;;5053145;28;19948;-61
2022/09/07 06:01:15;;;;;;;;;;;589.30;2432.00;;;;;;5053316;28;19916;-61
2022/09/07 06:03:41;;;;;;;;;;;691.40;2124.80;;;;;;5053010;28;19916;-61
2022/09/07 06:06:11;;;;;;;;;;;743.00;1868.80;;;;;;5052802;28;20008;-61
2022/09/07 06:08:37;;;;;;;;;;;819.30;1664.00;;;;;;5052979;28;19916;-61
2022/09/07 06:11:06;;;;;;;;;;;845.40;1536.00;;;;;;5052821;28;20010;-61
2022/09/07 06:13:32;;;;;;;;;;;870.90;1459.20;;;;;;5052946;28;19936;-62
2022/09/07 06:15:59;;;;;;;;;;;896.10;1408.00;;;;;;5052811;28;19912;-62
2022/09/07 06:18:27;;;;;;;;;;;921.80;1382.40;;;;;;5052904;28;20298;-61
2022/09/07 06:20:53;;;;;;;;;;;921.90;1356.80;;;;;;5052822;28;19920;-62
2022/09/07 06:23:18;;;;;;;;;;;947.40;1305.60;;;;;;5052484;28;19925;-60
2022/09/07 06:25:48;;;;;;;;;;;972.80;1280.00;;;;;;5052838;28;20366;-62
2022/09/07 06:28:13;;;;;;;;;;;973.40;1228.80;;;;;;5052702;28;19909;-61
2022/09/07 06:30:39;;;;;;;;;;;972.80;1254.40;;;;;;5052169;28;19920;-61
2022/09/07 06:33:05;;;;;;;;;;;973.70;1203.20;;;;;;5052592;28;19912;-61
2022/09/07 06:35:30;;;;;;;;;;;998.70;1228.80;;;;;;5052206;28;20355;-61
2022/09/07 06:37:56;;;;;;;;;;;999.20;1203.20;;;;;;5052541;28;19947;-61
2022/09/07 06:40:21;;;;;;;;;;;1049.60;1177.60;;;;;;5052413;28;20370;-62
2022/09/07 06:42:47;;;;;;;;;;;1049.60;1126.40;;;;;;5051974;28;19916;-62
2022/09/07 06:45:12;;;;;;;;;;;1024.70;1152.00;;;;;;5052413;28;19912;-61
2022/09/07 06:47:38;;;;;;;;;;;1049.90;1152.00;;;;;;5051963;28;20362;-61
2022/09/07 06:50:04;;;;;;;;;;;1024.60;1126.40;;;;;;5052315;28;19909;-62
2022/09/07 06:52:30;;;;;;;;;;;998.80;1152.00;;;;;;5051665;28;19921;-60
2022/09/07 06:54:55;;;;;;;;;;;1024.50;1152.00;;;;;;5052101;28;20319;-63
2022/09/07 06:57:21;;;;;;;;;;;1049.80;1126.40;;;;;;5051964;28;19909;-60
2022/09/07 06:59:46;;;;;;;;;;;1049.60;1152.00;;;;;;5052045;28;19920;-62
2022/09/07 07:02:15;;;;;;;;;;;1050.20;1100.80;;;;;;5051904;28;19919;-61
2022/09/07 07:04:40;;;;;;;;;;;1050.40;1126.40;;;;;;5051768;28;20275;-61
2022/09/07 07:07:10;;;;;;;;;;;1050.40;1100.80;;;;;;5051864;28;19920;-62
2022/09/07 07:09:37;;;;;;;;;;;;;;;;;;5052046;28;20179;-64
2022/09/07 07:12:02;;;;;;;;;;;1075.20;1075.20;;;;;;5051856;28;19916;-61
2022/09/07 07:14:28;;;;;;;;;;;1050.40;1100.80;;;;;;5051764;28;19909;-61
2022/09/07 07:16:53;;;;;;;;;;;999.10;1126.40;;;;;;5051814;28;19944;-61
2022/09/07 07:19:19;;;;;;;;;;;921.80;1305.60;;;;;;5051390;28;19908;-61
2022/09/07 07:21:44;;;;;;;;;;;871.00;1331.20;;;;;;5051290;28;20068;-61
2022/09/07 07:24:10;;;;;;;;;;;845.20;1433.60;;;;;;5051342;28;19919;-63
2022/09/07 07:26:36;;;;;;;;;;;820.10;1408.00;;;;;;5051617;28;19920;-62
2022/09/07 07:29:01;;;;;;;;;;;819.80;1433.60;;;;;;5051302;28;19915;-60
2022/09/07 07:31:27;;;;;;;;;;;794.40;1484.80;;;;;;5051224;28;20370;-62
2022/09/07 07:33:53;;;;;;;;;;;793.80;1536.00;;;;;;5051422;28;20000;-62
2022/09/07 07:36:18;;;;;;;;;;;793.70;1510.40;;;;;;5051293;28;19916;-60
2022/09/07 07:38:45;;;;;;;;;;;793.60;1536.00;;;;;;5051326;28;19912;-63
2022/09/07 07:41:11;;;;;;;;;;;794.00;1510.40;;;;;;5050946;28;20428;-61
2022/09/07 07:43:37;;;;;;;;;;;794.10;1510.40;;;;;;5050944;28;19935;-61
2022/09/07 07:46:03;;;;;;;;;;;794.50;1484.80;;;;;;5051181;28;20003;-62
2022/09/07 07:48:30;;;;;;;;;;;819.50;1484.80;;;;;;5050918;28;20282;-61
2022/09/07 07:51:00;;;;;;;;;;;844.80;1459.20;;;;;;5051140;28;19927;-61
2022/09/07 07:53:26;;;;;;;;;;;820.10;1433.60;;;;;;5051151;28;20438;-61
2022/09/07 07:55:52;;;;;;;;;;;845.20;1433.60;;;;;;5051321;28;19909;-61
2022/09/07 07:58:18;;;;;;;;;;;870.90;1382.40;;;;;;5050883;28;20278;-60
2022/09/07 08:00:44;;;;;;;;;;;871.00;1356.80;;;;;;5050909;28;19917;-61
2022/09/07 08:03:09;;;;;;;;;;;896.50;1331.20;;;;;;5050697;28;19948;-61
2022/09/07 08:05:36;;;;;;;;;;;922.10;1280.00;;;;;;5050840;28;19909;-63
2022/09/07 08:08:01;;;;;;;;;;;947.60;1254.40;;;;;;5050913;28;19996;-61
2022/09/07 08:10:28;;;;;;;;;;;972.80;1280.00;;;;;;5050751;28;19945;-61
2022/09/07 08:12:54;;;;;;;;;;;998.60;1203.20;;;;;;5050901;28;20317;-61
2022/09/07 08:15:20;;;;;;;;;;;1024.50;1152.00;;;;;;5050651;28;20354;-61
2022/09/07 08:17:48;;;;;;;;;;;1024.50;1152.00;;;;;;5050530;28;19909;-62
2022/09/07 08:20:14;;;;;;;;;;;1050.00;1126.40;;;;;;5050474;28;20255;-61
2022/09/07 08:22:40;;;;;;;;;;;1024.90;1126.40;;;;;;5050126;28;20031;-61
2022/09/07 08:25:06;;;;;;;;;;;1050.30;1126.40;;;;;;5050605;28;20390;-61
2022/09/07 08:27:32;;;;;;;;;;;1049.60;1152.00;;;;;;5050299;28;19909;-63
2022/09/07 08:29:58;;;;;;;;;;;1049.70;1152.00;;;;;;5050269;28;20351;-59
2022/09/07 08:32:24;;;;;;;;;;;1024.50;1152.00;;;;;;5049581;28;19916;-60
2022/09/07 08:34:50;;;;;;;;;;;1050.50;1126.40;;;;;;5050155;28;19951;-64
2022/09/07 08:37:15;;;;;;;;;;;999.00;1177.60;;;;;;5050575;28;19963;-60
2022/09/07 08:39:41;;;;;;;;;;;999.20;1177.60;;;;;;5050123;28;20362;-60
2022/09/07 08:42:07;;;;;;;;;;;1024.70;1126.40;;;;;;5050371;28;19920;-62
2022/09/07 08:44:37;;;;;;;;;;;1049.80;1126.40;;;;;;5050281;28;19909;-60
2022/09/07 08:47:22;;;;;;;;;;;1024.60;1126.40;;;;;;5050362;28;19916;-62
2022/09/07 08:50:06;;;;;;;;;;;998.50;1203.20;;;;;;5050071;28;20409;-58
2022/09/07 08:52:44;;;;;;;;;;;947.20;1254.40;;;;;;5049712;28;19921;-62
2022/09/07 08:55:13;;;;;;;;;;;871.20;1331.20;;;;;;5049938;28;19913;-56
2022/09/07 08:57:40;;;;;;;;;;;870.90;1356.80;;;;;;5049900;28;19916;-56
2022/09/07 09:00:10;;;;;;;;;;;870.70;1408.00;;;;;;5050157;28;19995;-60
2022/09/07 09:02:36;;;;;;;;;;;896.40;1382.40;;;;;;5050132;28;19908;-56
2022/09/07 09:05:03;;;;;;;;;;;896.60;1305.60;;;;;;5050153;28;19909;-56
2022/09/07 09:07:34;;;;;;;;;;;896.20;1356.80;;;;;;5050023;28;19962;-61
2022/09/07 09:10:12;;;;;;;;;;;896.80;1305.60;;;;;;5050010;28;20306;-56
2022/09/07 09:12:40;;;;;;;;;;;896.40;1331.20;;;;;;5049498;28;19917;-58
2022/09/07 09:15:09;;;;;;;;;;;896.90;1356.80;;;;;;5050047;28;19963;-55
2022/09/07 09:17:40;;;;;;;;;;;870.50;1382.40;;;;;;5050258;28;19955;-55
2022/09/07 09:20:15;;;;;;;;;;;870.70;1408.00;;;;;;5050208;28;19909;-60
2022/09/07 09:22:41;;;;;;;;;;;870.50;1408.00;;;;;;5049541;28;19999;-55
2022/09/07 09:25:13;;;;;;;;;;;845.60;1459.20;;;;;;5049834;28;20011;-59
2022/09/07 09:27:39;;;;;;;;;;;845.40;1433.60;;;;;;5049950;28;19909;-60
2022/09/07 09:30:11;;;;;;;;;;;845.40;1433.60;;;;;;5049937;28;20248;-59
2022/09/07 09:32:41;;;;;;;;;;;845.40;1459.20;;;;;;5049697;28;19948;-57
2022/09/07 09:35:19;;;;;;;;;;;845.40;1459.20;;;;;;5050056;28;20826;-59
2022/09/07 09:37:44;;;;;;;;;;;845.50;1536.00;;;;;;5049876;28;20260;-59
2022/09/07 09:40:30;;;;;;;;;;;845.40;1510.40;;;;;;5049709;28;19916;-60
2022/09/07 09:43:02;;;;;;;;;;;870.40;1459.20;;;;;;5050295;28;19909;-57
2022/09/07 09:45:29;;;;;;;;;;;870.40;1484.80;;;;;;5053324;28;19908;-55
2022/09/07 09:47:56;;;;;;;;;;;845.20;1510.40;;;;;;5053368;28;19948;-59
2022/09/07 09:50:29;;;;;;;;;;;845.00;1536.00;;;;;;5053156;28;19908;-60
2022/09/07 09:52:55;;;;;;;;;;;845.00;1536.00;;;;;;5053610;28;19925;-60
2022/09/07 09:55:30;;;;;;;;;;;844.90;1536.00;;;;;;5053092;28;19955;-55
2022/09/07 09:58:00;;;;;;;;;;;844.90;1536.00;;;;;;5053362;28;19999;-55
2022/09/07 10:00:27;;;;;;;;;;;819.70;1510.40;;;;;;5053237;28;20020;-56
2022/09/07 10:03:02;;;;;;;;;;;819.70;1536.00;;;;;;5053254;28;20354;-55
2022/09/07 10:05:29;;;;;;;;;;;794.30;1561.60;;;;;;5053132;28;19908;-55
2022/09/07 10:07:55;;;;;;;;;;;794.20;1536.00;;;;;;5053094;28;19909;-55
2022/09/07 10:10:21;;;;;;;;;;;794.30;1561.60;;;;;;5052915;28;19908;-60
2022/09/07 10:12:46;;;;;;;;;;;794.20;1587.20;;;;;;5052955;28;19975;-57
2022/09/07 10:15:26;;;;;;;;;;;794.20;1561.60;;;;;;5052954;28;20347;-56
2022/09/07 10:17:52;;;;;;;;;;;793.80;1561.60;;;;;;5052895;28;19943;-55
2022/09/07 10:20:20;;;;;;;;;;;768.80;1561.60;;;;;;5053047;28;19912;-55
2022/09/07 10:22:46;;;;;;;;;;;768.90;1561.60;;;;;;5052532;28;19975;-54
2022/09/07 10:25:31;;;;;;;;;;;768.90;1587.20;;;;;;5052552;28;19917;-59
2022/09/07 10:28:02;;;;;;;;;;;768.90;1587.20;;;;;;5034916;28;19909;-56
2022/09/07 10:30:28;;;;;;;;;;;793.70;1638.40;;;;;;5052240;28;19916;-55
2022/09/07 10:32:56;;;;;;;;;;;768.90;1587.20;;;;;;5052989;28;19913;-59
2022/09/07 10:35:24;;;;;;;;;;;;;;;;;;5052835;28;20014;-59
2022/09/07 10:37:49;;;;;;;;;;;;;;;;;;5052538;28;20267;-59
2022/09/07 10:40:28;;;;;;;;;;;793.60;1612.80;;;;;;5052455;28;19935;-60
2022/09/07 10:42:56;;;;;;;;;;;768.80;1561.60;;;;;;5052323;28;19915;-55
2022/09/07 10:45:25;;;;;;;;;;;793.70;1638.40;;;;;;5052666;28;19909;-59
2022/09/07 10:48:06;;;;;;;;;;;793.90;1587.20;;;;;;5052286;28;20007;-55
2022/09/07 10:50:43;;;;;;;;;;;793.70;1561.60;;;;;;5051903;28;19908;-55
2022/09/07 10:53:28;;;;;;;;;;;794.00;1587.20;;;;;;5052057;28;19940;-55
2022/09/07 10:56:03;;;;;;;;;;;794.10;1638.40;;;;;;5050543;28;19915;-54
2022/09/07 10:58:31;;;;;;;;;;;794.00;1561.60;;;;;;5052096;28;19963;-55
2022/09/07 11:01:12;;;;;;;;;;;793.90;1587.20;;;;;;5052404;28;20824;-54
2022/09/07 11:03:37;;;;;;;;;;;793.70;1612.80;;;;;;5052067;28;20013;-55
2022/09/07 11:06:03;;;;;;;;;;;793.90;1612.80;;;;;;5052049;28;20354;-55
2022/09/07 11:08:39;;;;;;;;;;;794.00;1561.60;;;;;;5049086;28;19936;-55
2022/09/07 11:11:17;;;;;;;;;;;794.00;1536.00;;;;;;5050356;28;19920;-54
2022/09/07 11:13:44;;;;;;;;;;;794.00;1510.40;;;;;;5050267;28;19959;-55
2022/09/07 11:16:13;;;;;;;;;;;794.00;1536.00;;;;;;5050014;28;19915;-56
2022/09/07 11:18:45;;;;;;;;;;;794.00;1510.40;;;;;;5049926;28;19913;-54
2022/09/07 11:21:12;;;;;;;;;;;794.10;1459.20;;;;;;5049187;28;19919;-54
2022/09/07 11:23:42;;;;;;;;;;;794.00;1536.00;;;;;;5049821;28;19967;-55
2022/09/07 11:26:20;;;;;;;;;;;794.00;1459.20;;;;;;5049957;28;19916;-55
2022/09/07 11:29:04;;;;;;;;;;;794.00;1510.40;;;;;;5049999;28;19962;-54
2022/09/07 11:31:33;;;;;;;;;;;794.00;1587.20;;;;;;5050387;28;19920;-59
2022/09/07 11:34:01;;;;;;;;;;;794.20;1510.40;;;;;;5051754;28;19955;-55
2022/09/07 11:36:29;;;;;;;;;;;794.20;1510.40;;;;;;5051228;28;20392;-54
2022/09/07 11:39:06;;;;;;;;;;;794.20;1484.80;;;;;;5051217;28;19909;-55
2022/09/07 11:41:45;;;;;;;;;;;794.10;1536.00;;;;;;5051111;28;19952;-54
2022/09/07 11:44:20;;;;;;;;;;;794.10;1510.40;;;;;;5051003;28;20355;-59
2022/09/07 11:46:59;;;;;;;;;;;794.00;1433.60;;;;;;5051154;28;19955;-55
2022/09/07 11:49:24;;;;;;;;;;;768.90;1459.20;;;;;;5051171;28;19909;-59
2022/09/07 11:52:00;;;;;;;;;;;768.90;1459.20;;;;;;5050831;28;19921;-59
2022/09/07 11:54:25;;;;;;;;;;;768.90;1459.20;;;;;;5051283;28;19919;-59
2022/09/07 11:57:13;;;;;;;;;;;768.90;1433.60;;;;;;5050805;28;20330;-58
2022/09/07 11:59:41;;;;;;;;;;;768.90;1408.00;;;;;;5050831;28;19916;-58
2022/09/07 12:02:10;;;;;;;;;;;768.90;1408.00;;;;;;5050804;28;19913;-56
2022/09/07 12:04:58;;;;;;;;;;;768.90;1433.60;;;;;;5050904;28;20425;-54
2022/09/07 12:07:29;;;;;;;;;;;793.80;1510.40;;;;;;5050789;28;19913;-54
2022/09/07 12:10:13;;;;;;;;;;;794.00;1433.60;;;;;;5051037;28;19909;-55
2022/09/07 12:12:42;;;;;;;;;;;794.00;1408.00;;;;;;5050512;28;19916;-55
2022/09/07 12:15:10;;;;;;;;;;;794.10;1459.20;;;;;;5050347;28;19909;-55
2022/09/07 12:17:54;;;;;;;;;;;794.10;1484.80;;;;;;5050494;28;19909;-56
2022/09/07 12:20:21;;;;;;;;;;;794.00;1408.00;;;;;;5050353;28;19909;-55
2022/09/07 12:23:03;;;;;;;;;;;793.90;1408.00;;;;;;5050312;28;20429;-58
2022/09/07 12:25:29;;;;;;;;;;;768.90;1382.40;;;;;;5050308;28;19919;-60
2022/09/07 12:27:55;;;;;;;;;;;768.90;1382.40;;;;;;5050419;28;20278;-59
2022/09/07 12:30:21;;;;;;;;;;;793.80;1408.00;;;;;;5050566;28;19908;-60
2022/09/07 12:32:47;;;;;;;;;;;793.70;1382.40;;;;;;5050124;28;19944;-55
2022/09/07 12:35:31;;;;;;;;;;;794.00;1459.20;;;;;;5050487;28;20003;-59
2022/09/07 12:37:56;;;;;;;;;;;794.20;1408.00;;;;;;5050466;28;19944;-54
2022/09/07 12:40:34;;;;;;;;;;;794.20;1356.80;;;;;;5050334;28;19916;-55
2022/09/07 12:43:12;;;;;;;;;;;794.30;1356.80;;;;;;5050106;28;19963;-55
2022/09/07 12:45:37;;;;;;;;;;;794.30;1356.80;;;;;;5050232;28;19909;-55
2022/09/07 12:48:23;;;;;;;;;;;794.10;1331.20;;;;;;5050332;28;20355;-60
2022/09/07 12:50:48;;;;;;;;;;;794.00;1356.80;;;;;;4949839;29;19939;-54
2022/09/07 12:53:14;;;;;;;;;;;794.30;1382.40;;;;;;4950293;29;19915;-60
2022/09/07 12:55:54;;;;;;;;;;;794.40;1382.40;;;;;;4950021;29;19911;-55
2022/09/07 12:58:29;;;;;;;;;;;819.20;1459.20;;;;;;4950119;29;19918;-55
2022/09/07 13:01:00;;;;;;;;;;;819.30;1433.60;;;;;;4950114;29;20385;-54
2022/09/07 13:03:34;;;;;;;;;;;819.30;1331.20;;;;;;4950265;29;19911;-59
2022/09/07 13:06:18;;;;;;;;;;;819.20;1356.80;;;;;;4949900;29;19942;-59
2022/09/07 13:08:47;;;;;;;;;;;794.50;1356.80;;;;;;4950093;29;19967;-55
2022/09/07 13:11:18;;;;;;;;;;;819.30;1382.40;;;;;;4949936;29;20432;-60
2022/09/07 13:13:57;;;;;;;;;;;794.50;1356.80;;;;;;4950091;29;19910;-60
2022/09/07 13:16:25;;;;;;;;;;;819.30;1459.20;;;;;;4950152;29;19910;-56
2022/09/07 13:18:50;;;;;;;;;;;819.60;1382.40;;;;;;4952217;28;19914;-58
2022/09/07 13:21:17;;;;;;;;;;;819.60;1382.40;;;;;;4953626;29;19918;-60
2022/09/07 13:24:02;;;;;;;;;;;819.60;1382.40;;;;;;4953846;29;19930;-55
2022/09/07 13:26:54;;;;;;;;;;;819.80;1356.80;;;;;;4953314;29;20443;-58
2022/09/07 13:29:22;;;;;;;;;;;819.30;1382.40;;;;;;5017884;28;20398;-56
2022/09/07 13:32:26;;;;;;;;;;;794.50;1408.00;;;;;;5033664;28;19921;-59
2022/09/07 13:34:57;;;;;;;;;;;819.30;1408.00;;;;;;5033888;28;19988;-55
2022/09/07 13:37:25;;;;;;;;;;;819.40;1484.80;;;;;;5033660;28;19959;-54
2022/09/07 13:39:53;;;;;;;;;;;819.20;1510.40;;;;;;5033496;28;19916;-56
2022/09/07 13:42:22;;;;;;;;;;;819.20;1536.00;;;;;;5033745;28;19909;-54
2022/09/07 13:44:55;;;;;;;;;;;794.50;1561.60;;;;;;5033340;28;20377;-55
2022/09/07 13:47:34;;;;;;;;;;;794.20;1561.60;;;;;;5033423;28;19964;-60
2022/09/07 13:50:04;;;;;;;;;;;794.20;1561.60;;;;;;5033191;28;19909;-60
2022/09/07 13:52:35;;;;;;;;;;;794.10;1561.60;;;;;;5033288;28;19921;-55